Tianshui, China
Current Conditions -  °F | °C
As of 12:00 AM on Tuesday 27 Jan 2015 (Local Time) from ZLXY Reporting Station
Haze Haze  
Wind Chill: 34°   Ceiling: Unl
Heat Index: 37°   Visibility: 0.62mi
Dew Point: 30°   Wind: 4mph
Humidity: 75%   Direction: 60°ENE
Pressure: 30.36"   Gusts: NA
Location:  34.58°N, 105.75°E
Report Text: ZLXY 261600Z 06002MPS 030V100 1000 R05L/P2000 R05R/P2000BRNSC03/M01 Q1028 NOSIG
Loading
Personal Weather Stations






























Interactive Weather Map New forecast layout! Learn more

10-Day Weather Forecast

Advertisements
Track Severe Weather on mobile